Time;durP1;ratioP1;P1;durP2;ratioP2;P2;SDS_P1;SDS_P2;PMS_P1;PMS_P2;Temp;Humidity;BMP_temperature;BMP_pressure;BME280_temperature;BME280_humidity;BME280_pressure;Samples;Min_cycle;Max_cycle;Signal;HPM_P1;HPM_P2
2023/09/30 00:00:43;;;;;;;26.42;4.78;;;;;;;17.79;99.36;101014.28;5033628;28;20029;-72
2023/09/30 00:03:09;;;;;;;36.63;5.35;;;;;;;17.73;100.00;101015.22;5091148;28;20048;-72
2023/09/30 00:05:35;;;;;;;26.77;4.97;;;;;;;17.67;99.61;100991.69;5080641;28;20063;-72
2023/09/30 00:08:00;;;;;;;30.63;4.88;;;;;;;17.73;99.95;101022.56;5077381;28;20025;-72
2023/09/30 00:10:26;;;;;;;33.10;5.70;;;;;;;17.71;99.75;101020.06;5078037;28;20037;-71
2023/09/30 00:12:51;;;;;;;24.17;4.68;;;;;;;17.71;99.47;101011.06;5042284;28;20043;-72
2023/09/30 00:15:16;;;;;;;31.25;5.00;;;;;;;17.74;99.14;101013.31;5058600;28;20030;-71
2023/09/30 00:17:42;;;;;;;23.73;4.32;;;;;;;17.64;99.32;101010.38;5041562;28;20025;-71
2023/09/30 00:20:08;;;;;;;29.25;5.10;;;;;;;17.61;98.99;101014.41;5054900;28;20067;-71
2023/09/30 00:22:33;;;;;;;27.92;5.05;;;;;;;17.65;99.34;101029.22;5058671;28;20023;-71
2023/09/30 00:24:59;;;;;;;30.95;5.18;;;;;;;17.51;98.84;101012.31;5078850;28;20024;-71
2023/09/30 00:27:24;;;;;;;29.10;4.70;;;;;;;17.60;98.91;101034.53;5064551;28;20029;-71
2023/09/30 00:29:50;;;;;;;24.15;4.38;;;;;;;17.69;97.87;101045.88;5042300;28;20043;-72
2023/09/30 00:32:15;;;;;;;28.02;5.32;;;;;;;17.67;97.78;101046.09;5076035;28;20024;-72
2023/09/30 00:34:40;;;;;;;27.27;4.75;;;;;;;17.59;98.25;101043.78;5058258;28;20028;-71
2023/09/30 00:37:06;;;;;;;21.60;4.35;;;;;;;17.61;97.83;101044.34;5076335;28;20092;-71
2023/09/30 00:39:32;;;;;;;29.15;5.45;;;;;;;17.74;97.28;101038.63;5042300;28;20491;-71
2023/09/30 00:41:58;;;;;;;25.02;3.92;;;;;;;17.63;98.24;101039.50;5058700;28;20086;-71
2023/09/30 00:44:25;;;;;;;25.98;5.10;;;;;;;17.78;97.03;101033.56;5058376;28;20033;-71
2023/09/30 00:46:51;;;;;;;28.15;4.82;;;;;;;17.75;96.97;101043.03;5075277;28;20036;-71
2023/09/30 00:49:18;;;;;;;22.70;4.38;;;;;;;17.78;96.86;101034.41;5058117;28;20021;-71
2023/09/30 00:51:45;;;;;;;30.50;5.35;;;;;;;17.84;96.79;101032.59;5076094;28;20159;-71
2023/09/30 00:54:11;;;;;;;28.98;5.57;;;;;;;17.90;96.53;101036.25;5041481;28;20036;-71
2023/09/30 00:56:44;;;;;;;29.75;5.20;;;;;;;17.89;96.76;101021.81;5054198;28;20020;-71
2023/09/30 00:59:09;;;;;;;32.40;4.97;;;;;;;17.78;97.76;101023.53;5054829;28;20028;-71
2023/09/30 01:01:36;;;;;;;35.10;5.10;;;;;;;17.82;97.68;101023.88;5044745;28;20578;-71
2023/09/30 01:04:02;;;;;;;29.17;5.18;;;;;;;17.78;98.14;101015.38;5061673;28;20033;-71
2023/09/30 01:06:27;;;;;;;30.08;5.25;;;;;;;17.79;98.15;101029.78;5061436;28;20060;-71
2023/09/30 01:08:54;;;;;;;29.75;6.38;;;;;;;17.84;97.87;101025.25;5061658;28;20063;-71
2023/09/30 01:11:21;;;;;;;32.22;6.15;;;;;;;17.86;97.86;101025.03;5061069;28;20028;-71
2023/09/30 01:13:47;;;;;;;35.25;5.30;;;;;;;17.74;98.38;101016.84;5079824;28;20498;-71
2023/09/30 01:16:13;;;;;;;39.60;5.43;;;;;;;17.78;98.65;101037.13;5043992;28;20534;-71
2023/09/30 01:18:40;;;;;;;27.13;4.68;;;;;;;17.74;98.38;101022.31;5061346;28;20109;-71
2023/09/30 01:21:06;;;;;;;26.88;4.90;;;;;;;17.73;98.34;101019.84;5065149;28;20043;-71
2023/09/30 01:23:33;;;;;;;31.48;5.50;;;;;;;17.81;97.62;101028.50;5048675;28;20028;-71
2023/09/30 01:26:08;;;;;;;29.67;5.15;;;;;;;17.86;97.65;101027.75;5084106;28;20036;-72
2023/09/30 01:28:34;;;;;;;28.15;4.88;;;;;;;17.75;98.38;101025.88;5064914;28;20036;-71
2023/09/30 01:30:59;;;;;;;29.73;5.00;;;;;;;17.76;98.24;101024.78;5051048;28;20029;-72
2023/09/30 01:33:25;;;;;;;27.77;5.00;;;;;;;17.75;98.11;101026.69;5067738;28;20033;-72
2023/09/30 01:35:50;;;;;;;25.98;4.70;;;;;;;17.72;98.17;101024.47;5085657;28;20495;-72
2023/09/30 01:38:16;;;;;;;31.25;4.88;;;;;;;17.55;98.42;101004.50;5051105;28;20034;-72
2023/09/30 01:40:42;;;;;;;27.27;5.13;;;;;;;17.68;98.71;101031.47;5067814;28;20032;-72
2023/09/30 01:43:08;;;;;;;36.67;6.00;;;;;;;17.57;99.22;101013.25;5086690;28;20051;-72
2023/09/30 01:45:35;;;;;;;32.78;5.68;;;;;;;17.66;99.02;101025.41;5084812;28;20066;-71
2023/09/30 01:48:00;;;;;;;31.50;5.20;;;;;;;17.70;98.83;101029.31;5084942;28;20028;-71
2023/09/30 01:50:26;;;;;;;36.15;5.93;;;;;;;17.69;98.58;101016.78;5084337;28;20033;-71
2023/09/30 01:52:51;;;;;;;33.40;5.30;;;;;;;17.70;98.96;101026.56;5049831;28;20398;-72
2023/09/30 01:55:16;;;;;;;26.45;5.65;;;;;;;17.61;99.28;101033.47;5034653;28;20044;-71
2023/09/30 01:57:42;;;;;;;25.45;5.30;;;;;;;17.53;100.00;101036.56;5050322;28;20028;-71
2023/09/30 02:00:09;;;;;;;28.08;5.63;;;;;;;17.54;100.00;101028.16;5083364;28;20028;-71
2023/09/30 02:02:36;;;;;;;28.65;4.93;;;;;;;17.59;99.71;101027.44;5049394;28;20401;-71
2023/09/30 02:05:02;;;;;;;30.95;5.15;;;;;;;17.56;99.94;101036.91;5066410;28;20067;-71
2023/09/30 02:07:29;;;;;;;33.53;5.18;;;;;;;17.54;99.73;101032.78;5067173;28;20050;-72
2023/09/30 02:09:54;;;;;;;28.02;5.18;;;;;;;17.59;99.64;101043.78;5065328;28;20028;-72
2023/09/30 02:12:19;;;;;;;24.55;4.57;;;;;;;17.54;99.95;101027.31;5081034;28;20114;-71
2023/09/30 02:14:46;;;;;;;32.42;5.10;;;;;;;17.60;99.75;101031.81;5058172;28;20043;-71
2023/09/30 02:17:11;;;;;;;30.90;5.32;;;;;;;17.60;99.98;101050.84;5062814;28;20439;-72
2023/09/30 02:19:36;;;;;;;20.67;4.53;;;;;;;17.51;100.00;101033.25;5059720;28;20032;-72
2023/09/30 02:22:02;;;;;;;22.67;4.55;;;;;;;17.48;100.00;101040.00;5085413;28;20040;-71
2023/09/30 02:24:27;;;;;;;29.77;5.07;;;;;;;17.54;100.00;101049.09;5049407;28;20037;-71
2023/09/30 02:26:53;;;;;;;28.20;5.43;;;;;;;17.46;100.00;101057.63;5067094;28;20035;-72
2023/09/30 02:29:19;;;;;;;35.17;5.80;;;;;;;17.49;100.00;101057.16;5083961;28;20084;-71
2023/09/30 02:31:45;;;;;;;22.15;4.55;;;;;;;17.35;100.00;101046.53;5065238;28;20047;-71
2023/09/30 02:34:10;;;;;;;28.17;4.57;;;;;;;17.53;100.00;101064.59;5039568;28;20036;-71
2023/09/30 02:36:39;;;;;;;33.40;5.32;;;;;;;17.51;100.00;101046.84;5043325;28;20481;-71
2023/09/30 02:39:05;;;;;;;30.65;5.43;;;;;;;17.52;100.00;101052.06;5045692;28;20499;-71
2023/09/30 02:41:30;;;;;;;31.33;5.82;;;;;;;17.54;100.00;101065.41;5080765;28;20050;-71
2023/09/30 02:43:55;;;;;;;29.85;5.38;;;;;;;17.38;100.00;101050.66;5082594;28;20107;-71
2023/09/30 02:46:21;;;;;;;30.27;5.82;;;;;;;17.55;100.00;101067.91;5081460;28;20024;-72
2023/09/30 02:48:46;;;;;;;26.92;4.88;;;;;;;17.41;100.00;101058.34;5064899;28;20074;-71
2023/09/30 02:51:12;;;;;;;29.63;4.65;;;;;;;17.40;100.00;101062.13;5065805;28;20063;-71
2023/09/30 02:53:37;;;;;;;25.00;5.15;;;;;;;17.47;100.00;101059.28;5064958;28;20100;-71
2023/09/30 02:56:04;;;;;;;43.40;6.05;;;;;;;17.29;100.00;101036.59;5078654;28;20024;-70
2023/09/30 02:58:30;;;;;;;32.55;5.97;;;;;;;17.47;100.00;101064.72;5079148;28;20024;-70
2023/09/30 03:00:55;;;;;;;29.35;5.30;;;;;;;17.52;100.00;101059.41;5079751;28;20020;-71
2023/09/30 03:03:21;;;;;;;28.20;4.88;;;;;;;17.58;100.00;101066.59;5062904;28;20029;-72
2023/09/30 03:05:48;;;;;;;33.05;5.68;;;;;;;17.45;100.00;101055.97;5081064;28;20078;-71
2023/09/30 03:08:14;;;;;;;32.45;5.40;;;;;;;17.58;100.00;101062.00;5061219;28;20033;-71
2023/09/30 03:10:40;;;;;;;37.58;6.03;;;;;;;17.57;100.00;101063.03;5078842;28;20028;-71
2023/09/30 03:13:07;;;;;;;26.13;4.63;;;;;;;17.56;100.00;101066.03;5064044;28;20402;-72
2023/09/30 03:15:33;;;;;;;27.00;5.00;;;;;;;17.54;100.00;101071.69;5064120;28;20036;-71
2023/09/30 03:17:59;;;;;;;25.10;4.88;;;;;;;17.69;100.00;101070.38;5078157;28;20060;-71
2023/09/30 03:20:25;;;;;;;29.48;5.38;;;;;;;17.64;100.00;101059.38;5047589;28;20025;-71
2023/09/30 03:22:51;;;;;;;28.55;4.15;;;;;;;17.58;100.00;101063.88;5061967;28;20064;-71
2023/09/30 03:25:19;;;;;;;26.67;4.90;;;;;;;17.66;100.00;101079.03;5081275;28;20024;-71
2023/09/30 03:27:47;;;;;;;18.70;3.75;;;;;;;17.55;100.00;101077.97;5048143;28;20025;-71
2023/09/30 03:30:15;;;;;;;12.30;3.03;;;;;;;17.16;100.00;101047.72;5084203;28;20032;-71
2023/09/30 03:32:41;;;;;;;21.95;3.80;;;;;;;17.43;99.63;101072.53;5065523;28;20475;-71
2023/09/30 03:35:10;;;;;;;23.00;3.72;;;;;;;17.52;98.68;101076.56;5045946;28;20033;-71
2023/09/30 03:37:37;;;;;;;33.65;4.80;;;;;;;17.59;98.69;101070.97;5061655;28;20020;-71
2023/09/30 03:40:13;;;;;;;31.95;5.28;;;;;;;17.56;99.72;101063.28;5080110;28;20036;-70
2023/09/30 03:42:39;;;;;;;33.78;6.55;;;;;;;17.41;100.00;101047.44;5063043;28;20096;-71
2023/09/30 03:45:09;;;;;;;28.65;4.50;;;;;;;17.49;100.00;101060.69;5064112;28;20119;-71
2023/09/30 03:47:36;;;;;;;28.13;4.50;;;;;;;17.44;100.00;101059.75;5083474;28;20040;-71
2023/09/30 03:50:03;;;;;;;35.90;5.13;;;;;;;17.51;100.00;101063.16;5080343;28;20036;-71
2023/09/30 03:52:28;;;;;;;27.95;4.93;;;;;;;17.48;100.00;101056.34;5061314;28;20032;-71
2023/09/30 03:54:53;;;;;;;27.67;4.75;;;;;;;17.45;100.00;101050.53;5062036;28;20025;-71
2023/09/30 03:57:19;;;;;;;29.65;5.63;;;;;;;17.44;100.00;101048.88;5064378;28;20103;-71
2023/09/30 03:59:46;;;;;;;35.42;6.03;;;;;;;17.43;100.00;101049.94;5046787;28;20047;-71
2023/09/30 04:02:11;;;;;;;38.78;6.47;;;;;;;17.44;100.00;101049.69;5047418;28;20017;-71
2023/09/30 04:04:37;;;;;;;35.15;5.70;;;;;;;17.38;100.00;101035.19;5064249;28;20028;-71
2023/09/30 04:07:05;;;;;;;39.92;6.15;;;;;;;17.39;100.00;101041.44;5043217;28;20063;-71
2023/09/30 04:09:31;;;;;;;30.38;5.28;;;;;;;17.40;100.00;101036.81;5054636;28;20452;-71
2023/09/30 04:11:57;;;;;;;33.00;5.63;;;;;;;17.37;100.00;101024.53;5064993;28;20039;-71
2023/09/30 04:14:22;;;;;;;31.35;4.88;;;;;;;17.38;100.00;101029.75;5066505;28;20033;-71
2023/09/30 04:16:48;;;;;;;31.35;5.25;;;;;;;17.44;100.00;101033.38;5070535;28;20372;-71
2023/09/30 04:19:14;;;;;;;30.63;5.63;;;;;;;17.48;100.00;101040.00;5081402;28;20037;-71
2023/09/30 04:21:39;;;;;;;27.52;5.32;;;;;;;17.40;100.00;101015.88;5078156;28;20024;-71
2023/09/30 04:24:07;;;;;;;27.20;5.57;;;;;;;17.43;100.00;101017.31;5076423;28;20032;-71
2023/09/30 04:26:32;;;;;;;29.67;4.90;;;;;;;17.44;100.00;101022.50;5062096;28;20051;-71
2023/09/30 04:28:58;;;;;;;28.05;4.95;;;;;;;17.51;100.00;101035.97;5061241;28;20067;-71
2023/09/30 04:31:42;;;;;;;30.75;5.28;;;;;;;17.50;100.00;101028.88;5059593;28;20108;-71
2023/09/30 04:34:08;;;;;;;35.47;5.95;;;;;;;17.43;100.00;101020.03;5058997;28;20547;-71
2023/09/30 04:36:35;;;;;;;32.67;5.78;;;;;;;17.56;100.00;101036.09;5062186;28;20095;-71
2023/09/30 04:39:02;;;;;;;29.92;5.40;;;;;;;17.50;100.00;101020.72;5061617;28;20068;-71
2023/09/30 04:41:28;;;;;;;36.75;5.47;;;;;;;17.49;100.00;101019.06;5063666;28;20096;-71
2023/09/30 04:43:53;;;;;;;33.10;6.13;;;;;;;17.64;100.00;101029.44;5062441;28;20454;-71
2023/09/30 04:46:20;;;;;;;24.10;4.72;;;;;;;17.58;100.00;101040.22;5082451;28;20506;-71
2023/09/30 04:48:48;;;;;;;35.92;5.93;;;;;;;17.63;100.00;101044.94;5067504;28;20058;-71
2023/09/30 04:51:13;;;;;;;28.60;4.93;;;;;;;17.60;100.00;101046.25;5067029;28;20025;-72
2023/09/30 04:53:38;;;;;;;38.67;5.70;;;;;;;17.60;100.00;101046.25;5104668;28;20048;-72
2023/09/30 04:56:04;;;;;;;26.73;5.15;;;;;;;17.55;100.00;101053.50;5085760;28;20067;-71
2023/09/30 04:58:29;;;;;;;24.73;4.80;;;;;;;17.32;100.00;101049.72;5070318;28;20064;-72
2023/09/30 05:00:55;;;;;;;29.13;4.55;;;;;;;17.31;100.00;101055.38;5068853;28;20021;-71
2023/09/30 05:03:20;;;;;;;23.70;4.10;;;;;;;17.11;100.00;101055.75;5050785;28;20025;-71
2023/09/30 05:05:45;;;;;;;17.20;2.65;;;;;;;17.02;100.00;101058.00;5072406;28;20063;-71
2023/09/30 05:08:13;;;;;;;23.88;2.85;;;;;;;16.88;100.00;101041.06;5048947;28;20051;-71
2023/09/30 05:10:39;;;;;;;18.45;2.70;;;;;;;16.91;100.00;101050.66;5081466;28;20033;-71
2023/09/30 05:13:04;;;;;;;15.13;2.58;;;;;;;17.04;100.00;101064.03;5069489;28;20039;-70
2023/09/30 05:15:32;;;;;;;17.17;2.65;;;;;;;17.00;100.00;101065.56;5090824;28;20055;-71
2023/09/30 05:17:58;;;;;;;16.00;3.20;;;;;;;16.97;99.83;101059.78;5050972;28;20063;-71
2023/09/30 05:20:24;;;;;;;18.65;3.60;;;;;;;17.02;98.13;101074.31;5070168;28;20024;-71
2023/09/30 05:22:50;;;;;;;17.20;2.88;;;;;;;17.19;96.82;101079.88;5079009;28;20041;-70
2023/09/30 05:25:16;;;;;;;21.90;3.20;;;;;;;17.16;96.10;101083.06;5051383;28;20032;-73
2023/09/30 05:27:42;;;;;;;25.10;3.70;;;;;;;17.22;95.28;101079.41;5064964;28;20037;-72
2023/09/30 05:30:08;;;;;;;21.92;3.33;;;;;;;17.33;94.61;101077.75;5094902;28;20032;-71
2023/09/30 05:32:38;;;;;;;18.02;3.65;;;;;;;17.27;94.52;101075.97;5081393;28;20036;-74
2023/09/30 05:35:05;;;;;;;9.73;1.85;;;;;;;17.31;92.37;101080.69;5076469;28;20540;-71
2023/09/30 05:37:30;;;;;;;20.42;3.50;;;;;;;17.38;91.80;101083.28;5069753;28;20024;-69
2023/09/30 05:39:56;;;;;;;15.50;2.63;;;;;;;17.25;91.76;101087.09;5054109;28;20445;-70
2023/09/30 05:42:22;;;;;;;13.77;2.45;;;;;;;17.44;90.19;101084.25;5086074;28;20048;-72
2023/09/30 05:44:48;;;;;;;14.77;2.60;;;;;;;17.47;89.16;101092.75;5084889;28;20251;-71
2023/09/30 05:47:15;;;;;;;18.17;2.53;;;;;;;17.30;88.70;101091.81;5080937;28;20166;-69
2023/09/30 05:49:41;;;;;;;15.93;2.50;;;;;;;17.27;87.41;101093.13;5080015;28;20021;-71
2023/09/30 05:52:07;;;;;;;12.70;2.10;;;;;;;17.30;86.24;101091.81;5066725;28;20025;-70
2023/09/30 05:54:32;;;;;;;13.32;2.53;;;;;;;17.28;84.99;101089.31;5068762;28;20028;-69
2023/09/30 05:57:00;;;;;;;13.30;2.20;;;;;;;17.42;83.96;101084.50;5060930;28;20067;-69
2023/09/30 05:59:25;;;;;;;12.85;2.25;;;;;;;17.50;83.29;101088.72;5070577;28;20387;-69
2023/09/30 06:01:51;;;;;;;16.23;2.75;;;;;;;17.53;83.71;101091.81;5088251;28;20084;-69
2023/09/30 06:04:17;;;;;;;15.77;2.47;;;;;;;17.50;86.07;101095.00;5084744;28;20028;-69
2023/09/30 06:06:42;;;;;;;12.07;2.22;;;;;;;17.28;87.26;101097.47;5065017;28;20044;-68
2023/09/30 06:09:08;;;;;;;12.98;2.42;;;;;;;17.06;87.45;101077.41;5063702;28;20036;-70
2023/09/30 06:11:36;;;;;;;16.52;2.97;;;;;;;17.08;87.58;101088.84;5063022;28;20032;-70
2023/09/30 06:14:01;;;;;;;16.90;2.47;;;;;;;17.19;88.63;101101.63;5062964;28;20028;-70
2023/09/30 06:16:27;;;;;;;18.88;2.92;;;;;;;17.17;89.15;101102.94;5079786;28;20756;-70
2023/09/30 06:18:54;;;;;;;19.10;2.90;;;;;;;17.22;89.30;101098.44;5080394;28;20020;-70
2023/09/30 06:21:20;;;;;;;13.77;2.50;;;;;;;17.29;88.96;101093.72;5063301;28;20062;-71
2023/09/30 06:23:48;;;;;;;17.10;2.83;;;;;;;17.37;88.10;101106.94;5065922;28;20069;-69
2023/09/30 06:26:15;;;;;;;19.02;3.40;;;;;;;17.32;87.85;101106.03;5080763;28;20376;-69
2023/09/30 06:28:43;;;;;;;11.63;1.90;;;;;;;17.40;87.85;101113.00;5081771;28;20104;-69
2023/09/30 06:31:09;;;;;;;13.45;2.45;;;;;;;17.36;88.31;101094.41;5083359;28;20057;-69
2023/09/30 06:33:41;;;;;;;17.98;2.60;;;;;;;17.61;87.76;101112.38;5080181;28;20111;-69
2023/09/30 06:36:13;;;;;;;15.18;2.25;;;;;;;17.56;86.98;101102.22;5063009;28;20125;-70
2023/09/30 06:38:39;;;;;;;13.07;1.98;;;;;;;17.71;84.78;101111.78;5081373;28;20024;-69
2023/09/30 06:41:05;;;;;;;17.88;3.08;;;;;;;17.58;85.75;101121.00;5081994;28;20032;-69
2023/09/30 06:43:31;;;;;;;8.38;1.60;;;;;;;17.34;87.75;101139.22;5083064;28;20020;-69
2023/09/30 06:45:57;;;;;;;6.72;1.40;;;;;;;17.01;91.77;101137.88;5077324;28;20033;-69
2023/09/30 06:48:22;;;;;;;11.05;1.83;;;;;;;16.90;94.64;101147.69;5065455;28;20432;-68
2023/09/30 06:50:49;;;;;;;12.50;2.03;;;;;;;16.76;95.81;101108.19;5028355;28;20150;-68
2023/09/30 06:53:16;;;;;;;19.77;2.38;;;;;;;16.79;97.40;101137.63;5061227;28;20028;-68
2023/09/30 06:55:44;;;;;;;14.85;2.58;;;;;;;16.72;97.59;101136.88;5060400;28;20062;-69
2023/09/30 06:58:10;;;;;;;15.20;2.35;;;;;;;16.78;99.23;101143.28;5058944;28;20543;-69
2023/09/30 07:00:37;;;;;;;17.60;3.00;;;;;;;16.82;99.89;101137.16;5043079;28;20114;-69
2023/09/30 07:03:03;;;;;;;21.75;3.30;;;;;;;16.81;99.51;101124.63;5042435;28;20031;-68
2023/09/30 07:05:29;;;;;;;18.23;3.28;;;;;;;17.05;98.48;101152.69;5060042;28;20044;-69
2023/09/30 07:07:55;;;;;;;18.52;2.70;;;;;;;16.93;98.85;101151.00;5078348;28;20038;-68
2023/09/30 07:10:20;;;;;;;20.65;3.35;;;;;;;16.96;99.19;101161.44;5077312;28;20068;-69
2023/09/30 07:12:46;;;;;;;21.38;3.45;;;;;;;16.97;99.03;101146.75;5058175;28;20035;-69
2023/09/30 07:15:13;;;;;;;27.42;3.75;;;;;;;17.09;97.89;101155.78;5058207;28;20040;-69
2023/09/30 07:17:39;;;;;;;15.55;2.63;;;;;;;17.00;95.97;101147.13;5058260;28;20028;-69
2023/09/30 07:20:05;;;;;;;13.85;2.10;;;;;;;17.17;93.50;101116.53;5061214;28;20488;-68
2023/09/30 07:22:31;;;;;;;13.82;2.85;;;;;;;17.47;92.30;101140.91;5078545;28;20384;-69
2023/09/30 07:24:57;;;;;;;17.20;2.88;;;;;;;17.34;92.39;101131.06;5081085;28;20036;-69
2023/09/30 07:27:23;;;;;;;15.07;2.60;;;;;;;17.58;90.85;101127.31;5080530;28;20562;-69
2023/09/30 07:29:49;;;;;;;18.00;3.45;;;;;;;17.64;89.94;101130.13;5064278;28;20084;-69
2023/09/30 07:32:14;;;;;;;14.88;2.13;;;;;;;17.78;89.56;101137.84;5063262;28;20044;-69
2023/09/30 07:34:40;;;;;;;12.90;1.85;;;;;;;17.74;88.79;101150.22;5081263;28;20024;-69
2023/09/30 07:37:06;;;;;;;18.30;2.45;;;;;;;17.78;88.46;101154.19;5063358;28;20363;-68
2023/09/30 07:39:32;;;;;;;10.45;2.45;;;;;;;17.73;87.37;101140.41;5064119;28;20024;-69
2023/09/30 07:41:58;;;;;;;10.20;1.90;;;;;;;18.11;86.20;101157.28;5064325;28;20052;-68
2023/09/30 07:44:23;;;;;;;14.45;2.70;;;;;;;17.92;86.47;101162.91;5064284;28;20028;-69
2023/09/30 07:46:49;;;;;;;17.63;2.88;;;;;;;17.96;85.57;101160.53;5068111;28;20080;-68
2023/09/30 07:49:14;;;;;;;12.02;2.40;;;;;;;18.11;84.76;101152.66;5043799;28;20079;-70
2023/09/30 07:51:40;;;;;;;11.20;2.20;;;;;;;17.79;85.15;101134.06;5077764;28;20031;-69
2023/09/30 07:54:06;;;;;;;14.38;2.42;;;;;;;18.02;84.07;101154.13;5056908;28;20021;-68
2023/09/30 07:56:31;;;;;;;13.95;2.53;;;;;;;18.12;85.27;101172.59;5058862;28;20097;-69
2023/09/30 07:58:57;;;;;;;14.43;2.13;;;;;;;18.06;85.99;101164.28;5059736;28;20044;-69
2023/09/30 08:01:22;;;;;;;17.75;3.10;;;;;;;17.96;86.84;101160.53;5077633;28;20135;-69
2023/09/30 08:03:47;;;;;;;14.45;2.45;;;;;;;17.97;86.41;101157.56;5077524;28;20040;-69
2023/09/30 08:06:13;;;;;;;14.02;2.75;;;;;;;17.99;86.14;101166.34;5042731;28;20067;-69
2023/09/30 08:08:39;;;;;;;15.63;2.80;;;;;;;18.22;84.89;101165.44;5059459;28;20041;-69
2023/09/30 08:11:05;;;;;;;10.75;2.30;;;;;;;18.24;83.82;101182.38;5046721;28;20032;-69
2023/09/30 08:13:32;;;;;;;18.48;2.92;;;;;;;18.25;80.38;101178.59;5047067;28;20122;-69
2023/09/30 08:15:58;;;;;;;14.35;2.15;;;;;;;18.05;79.54;101159.09;5081864;28;20027;-68
2023/09/30 08:18:23;;;;;;;15.98;3.58;;;;;;;18.11;79.03;101179.91;5064229;28;20028;-69
2023/09/30 08:20:49;;;;;;;19.95;3.58;;;;;;;18.30;79.13;101188.75;5063489;28;20094;-69
2023/09/30 08:23:14;;;;;;;16.15;3.72;;;;;;;18.57;78.72;101178.13;5030551;28;20020;-69
2023/09/30 08:25:40;;;;;;;12.65;2.80;;;;;;;18.53;78.49;101185.94;5064796;28;20037;-70
2023/09/30 08:28:05;;;;;;;14.68;3.00;;;;;;;18.46;78.69;101177.09;5064118;28;20141;-70
2023/09/30 08:30:33;;;;;;;14.48;2.97;;;;;;;18.33;78.54;101154.75;5081877;28;20029;-69
2023/09/30 08:32:59;;;;;;;11.07;2.30;;;;;;;18.27;78.62;101167.44;5063383;28;20028;-71
2023/09/30 08:35:24;;;;;;;18.73;3.20;;;;;;;18.38;77.48;101158.41;5062795;28;20474;-70
2023/09/30 08:37:50;;;;;;;18.88;3.40;;;;;;;18.66;76.78;101167.66;5081332;28;20032;-70
2023/09/30 08:40:20;;;;;;;19.50;3.25;;;;;;;18.58;77.79;101187.97;5063820;28;20024;-70
2023/09/30 08:42:52;;;;;;;15.70;3.28;;;;;;;18.45;78.50;101185.53;5067813;28;20017;-69
2023/09/30 08:45:18;;;;;;;12.40;2.72;;;;;;;18.48;78.24;101196.78;5083746;28;20036;-69
2023/09/30 08:47:43;;;;;;;22.90;4.07;;;;;;;18.45;78.47;101204.59;5084290;28;20108;-70
2023/09/30 08:50:10;;;;;;;19.13;3.13;;;;;;;18.55;78.95;101226.59;5047940;28;20056;-70
2023/09/30 08:52:38;;;;;;;14.18;2.88;;;;;;;18.44;79.71;101227.44;5065814;28;20024;-70
2023/09/30 08:55:04;;;;;;;16.65;3.65;;;;;;;18.43;80.56;101209.44;5085362;28;20054;-69
2023/09/30 08:57:30;;;;;;;19.35;3.45;;;;;;;18.61;79.22;101225.63;5050986;28;20036;-70
2023/09/30 08:59:57;;;;;;;16.60;3.88;;;;;;;18.80;78.57;101230.91;5084001;28;20044;-71
2023/09/30 09:02:23;;;;;;;15.30;3.13;;;;;;;18.57;77.28;101223.63;5083543;28;20079;-70
2023/09/30 09:04:49;;;;;;;14.57;2.85;;;;;;;18.52;77.80;101216.19;5082374;28;20433;-71
2023/09/30 09:07:15;;;;;;;12.10;2.20;;;;;;;18.47;78.71;101222.34;5064728;28;20123;-70
2023/09/30 09:09:40;;;;;;;11.18;1.90;;;;;;;18.38;79.89;101223.81;5082670;28;20511;-69
2023/09/30 09:12:16;;;;;;;15.18;2.42;;;;;;;18.50;80.45;101229.22;5046519;28;20111;-69
2023/09/30 09:14:46;;;;;;;18.52;3.13;;;;;;;18.58;81.10;101228.03;5079751;28;20044;-70
2023/09/30 09:17:11;;;;;;;17.52;3.58;;;;;;;18.60;81.72;101220.41;5080998;28;20021;-70
2023/09/30 09:19:37;;;;;;;14.98;3.25;;;;;;;18.56;82.33;101217.34;5081002;28;20032;-69
2023/09/30 09:22:06;;;;;;;12.13;2.63;;;;;;;18.58;83.07;101230.75;5048409;28;20132;-70
2023/09/30 09:24:34;;;;;;;10.23;2.30;;;;;;;18.51;84.66;101222.72;5083108;28;20070;-70
2023/09/30 09:27:07;;;;;;;16.60;3.15;;;;;;;18.63;84.68;101230.84;5083760;28;20033;-70
2023/09/30 09:29:34;;;;;;;16.67;3.33;;;;;;;18.55;85.01;101223.88;5066117;28;20084;-70
2023/09/30 09:32:14;;;;;;;19.02;3.28;;;;;;;18.49;84.72;101235.75;5064560;28;20067;-70
2023/09/30 09:34:41;;;;;;;16.85;3.72;;;;;;;18.48;82.91;101228.66;5082742;28;20028;-70
2023/09/30 09:37:17;;;;;;;19.42;4.03;;;;;;;18.62;81.46;101240.09;5065043;28;20024;-70
2023/09/30 09:39:55;;;;;;;17.08;3.50;;;;;;;18.31;80.22;101218.50;5083327;28;20025;-70
2023/09/30 09:42:31;;;;;;;18.88;4.00;;;;;;;18.37;78.75;101248.56;5063866;28;20016;-70
2023/09/30 09:45:02;;;;;;;17.00;3.40;;;;;;;18.36;78.63;101236.00;5046571;28;20081;-70
2023/09/30 09:47:29;;;;;;;20.35;4.28;;;;;;;18.75;77.81;101240.66;5080788;28;20029;-71
2023/09/30 09:49:57;;;;;;;21.63;4.25;;;;;;;18.61;79.55;101209.28;5062681;28;20025;-70
2023/09/30 09:52:24;;;;;;;19.55;4.30;;;;;;;18.78;78.75;101240.19;5080325;28;20028;-70
2023/09/30 09:54:51;;;;;;;20.92;5.07;;;;;;;18.91;77.97;101244.53;5063103;28;20029;-70
2023/09/30 09:57:20;;;;;;;20.80;3.45;;;;;;;18.91;78.71;101247.25;5062217;28;20029;-70
2023/09/30 09:59:50;;;;;;;19.42;2.88;;;;;;;18.71;79.22;101234.00;5080496;28;20070;-70
2023/09/30 10:02:17;;;;;;;16.30;3.80;;;;;;;18.88;78.34;101247.72;5064758;28;20029;-70
2023/09/30 10:04:45;;;;;;;14.05;3.47;;;;;;;18.85;78.94;101223.69;5083037;28;20167;-70
2023/09/30 10:07:25;;;;;;;14.25;2.90;;;;;;;18.85;79.72;101250.94;5065215;28;20104;-69
2023/09/30 10:09:53;;;;;;;24.13;4.38;;;;;;;18.59;80.90;101240.56;5083651;28;20039;-70
2023/09/30 10:12:21;;;;;;;19.08;3.78;;;;;;;18.76;80.99;101253.22;5083010;28;20029;-70
2023/09/30 10:14:47;;;;;;;16.55;3.38;;;;;;;18.85;80.54;101255.56;5082235;28;20040;-70
2023/09/30 10:17:12;;;;;;;15.13;3.17;;;;;;;18.94;80.61;101263.13;5082090;28;20427;-70
2023/09/30 10:20:08;;;;;;;19.30;3.42;;;;;;;18.90;81.44;101270.09;5082236;28;20032;-70
2023/09/30 10:22:33;;;;;;;20.23;3.10;;;;;;;18.96;81.21;101268.31;5082824;28;20028;-70
2023/09/30 10:25:00;;;;;;;24.50;4.20;;;;;;;19.07;79.51;101272.88;5065133;28;20082;-70
2023/09/30 10:27:28;;;;;;;19.15;3.35;;;;;;;18.91;80.02;101273.69;5084095;28;20028;-70
2023/09/30 10:30:10;;;;;;;16.88;3.78;;;;;;;19.11;79.65;101270.53;5083993;28;20107;-70
2023/09/30 10:32:50;;;;;;;18.20;3.88;;;;;;;19.02;80.24;101270.06;5084278;28;20387;-70
2023/09/30 10:35:25;;;;;;;18.05;3.33;;;;;;;18.78;82.02;101270.16;5067247;28;20025;-71
2023/09/30 10:37:51;;;;;;;24.10;3.67;;;;;;;18.74;81.63;101276.34;5086877;28;20020;-70
2023/09/30 10:40:31;;;;;;;17.05;3.70;;;;;;;18.65;81.69;101251.34;5085526;28;20032;-70
2023/09/30 10:42:57;;;;;;;25.48;5.72;;;;;;;18.92;81.86;101272.59;5066977;28;20036;-71
2023/09/30 10:45:43;;;;;;;19.50;4.80;;;;;;;19.02;81.66;101281.81;5083069;28;20029;-71
2023/09/30 10:48:41;;;;;;;29.75;5.57;;;;;;;18.85;81.70;101244.66;5064004;28;20040;-70
2023/09/30 10:51:14;;;;;;;27.45;5.60;;;;;;;19.19;81.96;101281.84;5031619;28;20028;-71
2023/09/30 10:53:45;;;;;;;18.30;3.10;;;;;;;19.02;79.36;101287.25;5084524;28;20166;-71
2023/09/30 10:56:10;;;;;;;22.63;4.20;;;;;;;18.87;76.88;101269.78;5064638;28;20597;-71
2023/09/30 10:58:46;;;;;;;20.00;4.40;;;;;;;19.47;75.43;101297.38;5081181;28;20032;-70
2023/09/30 11:01:14;;;;;;;20.00;3.83;;;;;;;19.32;77.78;101301.72;5082153;28;20043;-71
2023/09/30 11:03:41;;;;;;;21.67;4.50;;;;;;;19.22;76.34;101300.47;5065963;28;20084;-71
2023/09/30 11:06:06;;;;;;;19.40;4.15;;;;;;;19.28;76.02;101304.13;5065070;28;20048;-71
2023/09/30 11:08:34;;;;;;;21.23;3.85;;;;;;;19.24;76.45;101301.06;5081381;28;20036;-71
2023/09/30 11:11:01;;;;;;;22.88;4.13;;;;;;;19.26;76.84;101300.78;5079388;28;20071;-70
2023/09/30 11:13:34;;;;;;;13.63;2.88;;;;;;;19.36;76.07;101309.16;5076524;28;20026;-72